createdAt,value
2023-06-04T00:01:16.616Z,82.42
2023-06-04T00:03:44.086Z,82.21
2023-06-04T00:06:10.788Z,82.97
2023-06-04T00:08:37.490Z,83.29
2023-06-04T00:11:04.362Z,83.14
2023-06-04T00:13:31.107Z,82.86
2023-06-04T00:15:57.703Z,82.78
2023-06-04T00:18:24.238Z,81.48
2023-06-04T00:20:50.770Z,81.71
2023-06-04T00:23:17.385Z,80.95
2023-06-04T00:25:43.884Z,80.59
2023-06-04T00:28:10.456Z,80.08
2023-06-04T00:30:37.030Z,79.64
2023-06-04T00:33:03.837Z,79.18
2023-06-04T00:35:30.509Z,79.14
2023-06-04T00:37:57.126Z,78.93
2023-06-04T00:40:23.662Z,78.91
2023-06-04T00:42:50.549Z,78.31
2023-06-04T00:45:19.824Z,77.77
2023-06-04T00:47:46.535Z,77.08
2023-06-04T00:50:13.234Z,77.33
2023-06-04T00:52:42.740Z,76.75
2023-06-04T00:55:09.508Z,76.45
2023-06-04T00:57:36.106Z,76.04
2023-06-04T01:00:03.277Z,76.00
2023-06-04T01:02:31.328Z,76.17
2023-06-04T01:05:15.149Z,76.37
2023-06-04T01:07:46.651Z,77.49
2023-06-04T01:10:14.295Z,78.15
2023-06-04T01:12:42.175Z,78.51
2023-06-04T01:15:09.320Z,77.11
2023-06-04T01:17:40.149Z,76.44
2023-06-04T01:20:21.973Z,76.05
2023-06-04T01:23:14.369Z,75.47
2023-06-04T01:25:42.683Z,75.26
2023-06-04T01:28:11.898Z,74.70
2023-06-04T01:30:46.971Z,74.40
2023-06-04T01:33:19.929Z,74.50
2023-06-04T01:35:46.462Z,74.83
2023-06-04T01:38:13.066Z,74.54
2023-06-04T01:40:39.785Z,74.25
2023-06-04T01:43:06.372Z,73.30
2023-06-04T01:45:32.971Z,73.17
2023-06-04T01:48:01.882Z,74.70
2023-06-04T01:50:28.439Z,76.46
2023-06-04T01:52:55.487Z,77.16
2023-06-04T01:55:22.034Z,76.88
2023-06-04T01:57:49.610Z,75.69
2023-06-04T02:00:16.279Z,75.09
2023-06-04T02:02:47.037Z,74.24
2023-06-04T02:05:13.620Z,74.45
2023-06-04T02:07:41.576Z,74.32
2023-06-04T02:10:15.108Z,74.46
2023-06-04T02:12:42.432Z,74.08
2023-06-04T02:15:11.307Z,75.97
2023-06-04T02:17:44.112Z,76.47
2023-06-04T02:20:11.262Z,76.67
2023-06-04T02:22:38.748Z,76.53
2023-06-04T02:25:05.985Z,76.66
2023-06-04T02:27:32.592Z,77.46
2023-06-04T02:29:59.198Z,77.77
2023-06-04T02:32:25.994Z,77.92
2023-06-04T02:34:52.536Z,78.23
2023-06-04T02:37:19.198Z,78.27
2023-06-04T02:39:45.935Z,78.65
2023-06-04T02:42:12.481Z,78.93
2023-06-04T02:44:38.972Z,79.41
2023-06-04T02:47:05.930Z,80.19
2023-06-04T02:49:32.479Z,82.74
2023-06-04T02:51:58.977Z,86.64
2023-06-04T02:54:25.706Z,88.06
2023-06-04T02:56:52.503Z,88.56
2023-06-04T02:59:19.192Z,89.07
2023-06-04T03:01:46.068Z,90.19
2023-06-04T03:04:16.754Z,91.46
2023-06-04T03:06:47.580Z,91.94
2023-06-04T03:09:14.494Z,92.61
2023-06-04T03:11:41.047Z,93.25
2023-06-04T03:14:07.769Z,93.31
2023-06-04T03:16:34.418Z,93.48
2023-06-04T03:19:01.088Z,93.70
2023-06-04T03:21:30.134Z,93.86
2023-06-04T03:23:57.004Z,94.17
2023-06-04T03:26:23.620Z,94.32
2023-06-04T03:28:50.160Z,93.76
2023-06-04T03:31:16.858Z,93.41
2023-06-04T03:33:43.552Z,92.76
2023-06-04T03:36:10.275Z,92.08
2023-06-04T03:38:36.886Z,92.03
2023-06-04T03:41:03.625Z,91.64
2023-06-04T03:43:30.417Z,90.40
2023-06-04T03:45:56.993Z,91.23
2023-06-04T03:48:23.746Z,90.88
2023-06-04T03:50:50.686Z,90.83
2023-06-04T03:53:17.324Z,91.37
2023-06-04T03:55:44.304Z,91.73
2023-06-04T03:58:12.534Z,91.51
2023-06-04T04:00:39.114Z,90.83
2023-06-04T04:03:05.971Z,90.13
2023-06-04T04:05:33.204Z,90.63
2023-06-04T04:08:00.120Z,90.33
2023-06-04T04:10:26.737Z,89.87
2023-06-04T04:12:56.123Z,89.94
2023-06-04T04:15:22.869Z,89.24
2023-06-04T04:17:49.599Z,87.69
2023-06-04T04:20:17.376Z,87.14
2023-06-04T04:22:43.935Z,87.02
2023-06-04T04:25:10.623Z,86.96
2023-06-04T04:27:40.033Z,86.80
2023-06-04T04:30:07.336Z,85.84
2023-06-04T04:32:34.015Z,85.20
2023-06-04T04:35:01.652Z,85.21
2023-06-04T04:37:28.284Z,85.21
2023-06-04T04:39:54.770Z,85.29
2023-06-04T04:42:21.397Z,84.95
2023-06-04T04:44:49.405Z,84.68
2023-06-04T04:47:16.281Z,84.89
2023-06-04T04:49:43.081Z,85.06
2023-06-04T04:52:09.809Z,84.93
2023-06-04T04:54:36.537Z,84.90
2023-06-04T04:57:13.197Z,85.24
2023-06-04T04:59:41.022Z,84.46
2023-06-04T05:02:07.683Z,84.40
2023-06-04T05:04:34.346Z,84.46
2023-06-04T05:07:01.131Z,83.94
2023-06-04T05:09:27.723Z,83.78
2023-06-04T05:11:54.291Z,83.31
2023-06-04T05:14:20.962Z,83.72
2023-06-04T05:16:49.900Z,83.88
2023-06-04T05:19:20.429Z,84.51
2023-06-04T05:21:46.970Z,84.56
2023-06-04T05:24:13.641Z,84.45
2023-06-04T05:26:40.951Z,84.04
2023-06-04T05:29:13.463Z,84.00
2023-06-04T05:31:41.194Z,83.83
2023-06-04T05:34:07.871Z,83.76
2023-06-04T05:36:34.428Z,83.15
2023-06-04T05:39:01.315Z,82.48
2023-06-04T05:41:28.792Z,81.85
2023-06-04T05:43:55.577Z,81.78
2023-06-04T05:46:22.888Z,81.90
2023-06-04T05:48:49.828Z,80.84
2023-06-04T05:51:16.610Z,80.66
2023-06-04T05:53:43.381Z,80.22
2023-06-04T05:56:10.160Z,80.02
2023-06-04T05:58:37.324Z,79.47
2023-06-04T06:01:04.378Z,78.78
2023-06-04T06:03:33.342Z,78.41
2023-06-04T06:06:01.776Z,77.94
2023-06-04T06:08:28.475Z,77.01
2023-06-04T06:10:55.097Z,77.35
2023-06-04T06:13:21.707Z,77.54
2023-06-04T06:15:51.759Z,77.76
2023-06-04T06:18:18.478Z,76.91
2023-06-04T06:20:45.449Z,76.20
2023-06-04T06:23:12.100Z,75.88
2023-06-04T06:25:41.557Z,75.20
2023-06-04T06:28:08.614Z,74.28
2023-06-04T06:30:35.451Z,73.80
2023-06-04T06:33:03.198Z,73.65
2023-06-04T06:35:29.838Z,72.92
2023-06-04T06:37:56.471Z,72.36
2023-06-04T06:40:23.758Z,71.78
2023-06-04T06:42:52.109Z,71.40
2023-06-04T06:45:20.219Z,71.05
2023-06-04T06:47:46.970Z,70.14
2023-06-04T06:50:13.647Z,69.77
2023-06-04T06:52:40.279Z,69.22
2023-06-04T06:55:07.124Z,69.20
2023-06-04T06:57:34.804Z,68.57
2023-06-04T07:00:02.677Z,68.25
2023-06-04T07:02:30.354Z,68.08
2023-06-04T07:04:57.171Z,68.16
2023-06-04T07:07:24.327Z,67.08
2023-06-04T07:09:51.328Z,67.30
2023-06-04T07:12:17.947Z,66.29
2023-06-04T07:14:44.647Z,65.89
2023-06-04T07:17:11.432Z,66.46
2023-06-04T07:19:38.198Z,66.20
2023-06-04T07:22:05.188Z,65.74
2023-06-04T07:24:31.839Z,66.04
2023-06-04T07:26:58.821Z,67.38
2023-06-04T07:29:25.757Z,66.99
2023-06-04T07:31:52.598Z,66.90
2023-06-04T07:34:19.227Z,65.92
2023-06-04T07:36:46.060Z,65.21
2023-06-04T07:39:12.707Z,64.79
2023-06-04T07:41:39.329Z,63.91
2023-06-04T07:44:06.012Z,63.81
2023-06-04T07:46:32.650Z,63.35
2023-06-04T07:48:59.362Z,62.75
2023-06-04T07:51:26.833Z,62.69
2023-06-04T07:53:53.749Z,62.32
2023-06-04T07:56:22.901Z,62.29
2023-06-04T07:58:49.606Z,62.88
2023-06-04T08:01:16.778Z,63.29
2023-06-04T08:03:43.644Z,62.71
2023-06-04T08:06:11.296Z,62.59
2023-06-04T08:08:38.062Z,61.98
2023-06-04T08:11:04.970Z,62.29
2023-06-04T08:13:31.899Z,61.49
2023-06-04T08:15:58.668Z,60.77
2023-06-04T08:18:25.419Z,60.23
2023-06-04T08:20:52.554Z,59.34
2023-06-04T08:23:19.361Z,58.74
2023-06-04T08:25:46.101Z,58.12
2023-06-04T08:28:16.568Z,57.72
2023-06-04T08:30:44.080Z,56.82
2023-06-04T08:33:12.423Z,57.25
2023-06-04T08:35:39.234Z,56.96
2023-06-04T08:38:06.184Z,56.71
2023-06-04T08:40:32.985Z,57.21
2023-06-04T08:43:01.569Z,56.99
2023-06-04T08:45:28.996Z,56.40
2023-06-04T08:47:56.192Z,57.00
2023-06-04T08:50:25.009Z,56.76
2023-06-04T08:52:57.112Z,55.95
2023-06-04T08:55:25.468Z,57.45
2023-06-04T08:57:52.873Z,57.22
2023-06-04T09:00:20.523Z,57.25
2023-06-04T09:02:50.758Z,56.79
2023-06-04T09:05:22.382Z,56.85
2023-06-04T09:07:52.175Z,57.03
2023-06-04T09:10:20.440Z,56.51
2023-06-04T09:12:48.742Z,56.26
2023-06-04T09:15:15.494Z,55.94
2023-06-04T09:17:42.239Z,56.30
2023-06-04T09:20:19.153Z,55.99
2023-06-04T09:22:45.909Z,55.39
2023-06-04T09:25:26.972Z,55.29
2023-06-04T09:27:56.594Z,54.66
2023-06-04T09:30:24.108Z,55.01
2023-06-04T09:32:50.929Z,54.16
2023-06-04T09:35:19.317Z,54.40
2023-06-04T09:37:59.058Z,54.05
2023-06-04T09:40:26.075Z,53.26
2023-06-04T09:42:56.720Z,52.51
2023-06-04T09:45:30.353Z,52.11
2023-06-04T09:47:57.230Z,51.65
2023-06-04T09:50:28.703Z,50.91
2023-06-04T09:52:56.199Z,50.76
2023-06-04T09:55:23.771Z,50.26
2023-06-04T09:57:52.242Z,49.99
2023-06-04T10:00:22.044Z,49.30
2023-06-04T10:02:49.818Z,48.65
2023-06-04T10:05:17.328Z,47.76
2023-06-04T10:07:45.835Z,47.92
2023-06-04T10:10:17.477Z,47.45
2023-06-04T10:12:44.738Z,48.43
2023-06-04T10:15:14.792Z,48.84
2023-06-04T10:17:42.215Z,49.19
2023-06-04T10:20:10.095Z,48.74
2023-06-04T10:22:37.180Z,48.51
2023-06-04T10:25:04.788Z,49.65
2023-06-04T10:27:32.890Z,49.82
2023-06-04T10:30:04.533Z,49.92
2023-06-04T10:32:31.625Z,50.06
2023-06-04T10:34:58.800Z,51.33
2023-06-04T10:37:27.114Z,51.24
2023-06-04T10:39:56.100Z,51.15
2023-06-04T10:42:23.883Z,50.70
2023-06-04T10:44:54.385Z,49.45
2023-06-04T10:47:28.190Z,49.09
2023-06-04T10:49:56.254Z,48.50
2023-06-04T10:52:23.521Z,48.88
2023-06-04T10:54:50.381Z,48.37
2023-06-04T10:57:18.300Z,48.55
2023-06-04T11:00:02.201Z,49.16
2023-06-04T11:02:28.959Z,48.55
2023-06-04T11:05:08.059Z,47.53
2023-06-04T11:07:45.556Z,47.34
2023-06-04T11:10:13.439Z,47.47
2023-06-04T11:12:47.170Z,47.10
2023-06-04T11:15:14.486Z,47.34
2023-06-04T11:17:54.641Z,47.69
2023-06-04T11:20:22.859Z,47.42
2023-06-04T11:22:59.467Z,46.38
2023-06-04T11:25:27.525Z,45.96
2023-06-04T11:27:56.334Z,46.56
2023-06-04T11:30:23.598Z,45.81
2023-06-04T11:32:50.587Z,44.61
2023-06-04T11:35:17.547Z,43.65
2023-06-04T11:37:54.738Z,43.72
2023-06-04T11:40:21.605Z,43.42
2023-06-04T11:42:49.605Z,42.83
2023-06-04T11:45:18.756Z,42.75
2023-06-04T11:47:49.704Z,43.07
2023-06-04T11:50:17.134Z,43.08
2023-06-04T11:52:44.504Z,42.95
2023-06-04T11:55:12.765Z,42.29
2023-06-04T11:57:40.615Z,43.68
2023-06-04T12:00:10.503Z,42.76
2023-06-04T12:02:51.152Z,42.89
2023-06-04T12:05:21.945Z,42.67
2023-06-04T12:07:51.948Z,42.47
2023-06-04T12:10:23.615Z,43.03
2023-06-04T12:12:57.089Z,42.05
2023-06-04T12:15:24.026Z,41.74
2023-06-04T12:17:55.388Z,42.88
2023-06-04T12:20:38.149Z,43.65
2023-06-04T12:23:07.329Z,41.78
2023-06-04T12:25:35.396Z,42.14
2023-06-04T12:28:04.188Z,43.28
2023-06-04T12:30:39.205Z,43.10
2023-06-04T12:33:06.256Z,43.69
2023-06-04T12:35:34.157Z,42.86
2023-06-04T12:38:01.502Z,43.19
2023-06-04T12:40:28.207Z,44.31
2023-06-04T12:42:54.903Z,44.47
2023-06-04T12:45:21.567Z,44.32
2023-06-04T12:47:48.807Z,44.37
2023-06-04T12:50:15.673Z,44.62
2023-06-04T12:52:42.503Z,45.41
2023-06-04T12:55:10.144Z,45.81
2023-06-04T12:57:36.790Z,45.48
2023-06-04T13:00:05.789Z,45.39
2023-06-04T13:02:32.613Z,46.13
2023-06-04T13:04:59.422Z,44.57
2023-06-04T13:07:28.281Z,44.60
2023-06-04T13:09:55.372Z,42.56
2023-06-04T13:12:22.143Z,42.49
2023-06-04T13:14:48.816Z,40.80
2023-06-04T13:17:22.697Z,40.15
2023-06-04T13:19:49.847Z,39.01
2023-06-04T13:22:16.536Z,39.37
2023-06-04T13:24:43.326Z,38.91
2023-06-04T13:27:09.995Z,39.14
2023-06-04T13:29:36.669Z,38.46
2023-06-04T13:32:03.486Z,38.84
2023-06-04T13:34:31.980Z,38.51
2023-06-04T13:36:58.800Z,37.01
2023-06-04T13:39:25.542Z,36.66
2023-06-04T13:41:52.217Z,36.38
2023-06-04T13:44:18.913Z,36.13
2023-06-04T13:46:45.696Z,35.26
2023-06-04T13:49:12.321Z,35.75
2023-06-04T13:51:38.989Z,36.01
2023-06-04T13:54:05.811Z,36.13
2023-06-04T13:56:35.734Z,35.96
2023-06-04T13:59:02.427Z,34.63
2023-06-04T14:01:29.272Z,34.66
2023-06-04T14:03:56.197Z,34.98
2023-06-04T14:06:23.049Z,35.61
2023-06-04T14:08:49.703Z,35.08
2023-06-04T14:11:16.468Z,34.35
2023-06-04T14:13:46.221Z,35.13
2023-06-04T14:16:13.252Z,35.51
2023-06-04T14:18:39.866Z,36.35
2023-06-04T14:21:09.983Z,37.80
2023-06-04T14:23:36.841Z,37.20
2023-06-04T14:26:03.578Z,36.54
2023-06-04T14:28:30.620Z,35.94
2023-06-04T14:30:59.012Z,35.60
2023-06-04T14:33:25.837Z,36.27
2023-06-04T14:35:52.531Z,35.14
2023-06-04T14:38:19.321Z,35.55
2023-06-04T14:40:47.452Z,34.70
2023-06-04T14:43:14.418Z,33.16
2023-06-04T14:45:41.880Z,35.43
2023-06-04T14:48:15.333Z,37.01
2023-06-04T14:50:43.642Z,34.62
2023-06-04T14:53:10.784Z,33.61
2023-06-04T14:55:37.896Z,36.10
2023-06-04T14:58:05.016Z,33.12
2023-06-04T15:00:32.562Z,31.77
2023-06-04T15:03:01.061Z,31.73
2023-06-04T15:05:27.976Z,32.26
2023-06-04T15:07:54.850Z,32.35
2023-06-04T15:10:23.136Z,32.81
2023-06-04T15:12:49.828Z,33.86
2023-06-04T15:15:16.529Z,35.29
2023-06-04T15:17:45.572Z,32.09
2023-06-04T15:20:13.923Z,30.42
2023-06-04T15:22:40.670Z,32.07
2023-06-04T15:25:07.969Z,30.16
2023-06-04T15:27:35.295Z,30.71
2023-06-04T15:30:02.917Z,34.10
2023-06-04T15:32:29.676Z,37.28
2023-06-04T15:34:56.401Z,39.10
2023-06-04T15:37:23.155Z,40.26
2023-06-04T15:39:49.842Z,35.42
2023-06-04T15:42:16.622Z,32.82
2023-06-04T15:44:43.242Z,32.61
2023-06-04T15:47:09.941Z,31.70
2023-06-04T15:49:36.630Z,30.36
2023-06-04T15:52:03.535Z,29.57
2023-06-04T15:54:43.996Z,33.83
2023-06-04T15:57:12.471Z,36.83
2023-06-04T15:59:39.100Z,38.89
2023-06-04T16:02:07.050Z,39.08
2023-06-04T16:04:34.032Z,37.42
2023-06-04T16:07:01.241Z,37.78
2023-06-04T16:09:29.949Z,38.56
2023-06-04T16:11:56.712Z,33.60
2023-06-04T16:14:23.543Z,31.22
2023-06-04T16:16:50.436Z,29.88
2023-06-04T16:19:17.329Z,28.98
2023-06-04T16:21:44.132Z,28.41
2023-06-04T16:24:11.066Z,28.42
2023-06-04T16:26:37.994Z,28.95
2023-06-04T16:29:05.240Z,28.73
2023-06-04T16:31:32.002Z,28.97
2023-06-04T16:33:58.638Z,30.18
2023-06-04T16:36:25.344Z,30.09
2023-06-04T16:38:53.958Z,30.21
2023-06-04T16:41:21.335Z,31.21
2023-06-04T16:43:48.011Z,30.97
2023-06-04T16:46:14.671Z,31.64
2023-06-04T16:48:41.642Z,32.35
2023-06-04T16:51:09.528Z,33.24
2023-06-04T16:53:36.190Z,33.72
2023-06-04T16:56:02.788Z,34.13
2023-06-04T16:58:29.494Z,34.66
2023-06-04T17:00:56.332Z,36.59
2023-06-04T17:03:23.703Z,41.58
2023-06-04T17:05:50.437Z,45.40
2023-06-04T17:08:17.141Z,47.23
2023-06-04T17:10:44.003Z,48.85
2023-06-04T17:13:10.633Z,50.01
2023-06-04T17:15:37.291Z,51.91
2023-06-04T17:18:07.568Z,53.13
2023-06-04T17:20:34.389Z,54.69
2023-06-04T17:23:01.858Z,55.40
2023-06-04T17:25:30.227Z,55.87
2023-06-04T17:27:57.580Z,56.80
2023-06-04T17:30:25.425Z,56.78
2023-06-04T17:32:52.111Z,57.53
2023-06-04T17:35:19.002Z,58.73
2023-06-04T17:37:45.933Z,59.71
2023-06-04T17:40:13.091Z,60.13
2023-06-04T17:42:41.845Z,60.25
2023-06-04T17:45:11.303Z,60.79
2023-06-04T17:47:38.046Z,61.22
2023-06-04T17:50:08.038Z,61.69
2023-06-04T17:52:35.645Z,61.73
2023-06-04T17:55:02.565Z,62.13
2023-06-04T17:57:30.421Z,62.84
2023-06-04T18:00:20.564Z,63.03
2023-06-04T18:02:49.081Z,63.45
2023-06-04T18:05:15.863Z,63.64
2023-06-04T18:07:42.540Z,63.23
2023-06-04T18:10:12.875Z,63.51
2023-06-04T18:12:39.504Z,64.40
2023-06-04T18:15:06.594Z,64.04
2023-06-04T18:18:06.201Z,64.07
2023-06-04T18:20:38.078Z,64.38
2023-06-04T18:23:08.482Z,65.62
2023-06-04T18:25:37.028Z,66.04
2023-06-04T18:28:15.967Z,66.64
2023-06-04T18:30:42.812Z,66.81
2023-06-04T18:33:15.313Z,67.42
2023-06-04T18:36:05.345Z,67.70
2023-06-04T18:38:41.319Z,68.29
2023-06-04T18:41:07.992Z,68.22
2023-06-04T18:43:34.686Z,68.55
2023-06-04T18:46:01.381Z,68.40
2023-06-04T18:48:28.014Z,68.39
2023-06-04T18:50:56.962Z,68.63
2023-06-04T18:53:23.831Z,68.59
2023-06-04T18:55:55.412Z,68.57
2023-06-04T18:58:22.212Z,68.29
2023-06-04T19:00:48.962Z,68.68
2023-06-04T19:03:18.829Z,68.74
2023-06-04T19:05:51.604Z,68.66
2023-06-04T19:08:22.710Z,69.53
2023-06-04T19:10:59.966Z,69.28
2023-06-04T19:13:29.789Z,69.60
2023-06-04T19:15:56.455Z,69.78
2023-06-04T19:18:23.208Z,69.99
2023-06-04T19:20:58.231Z,70.81
2023-06-04T19:23:25.021Z,71.14
2023-06-04T19:25:51.604Z,72.09
2023-06-04T19:28:18.733Z,72.49
2023-06-04T19:30:45.899Z,72.97
2023-06-04T19:33:12.746Z,73.17
2023-06-04T19:35:39.558Z,73.06
2023-06-04T19:38:07.013Z,73.29
2023-06-04T19:40:33.645Z,73.92
2023-06-04T19:43:00.368Z,74.14
2023-06-04T19:45:28.151Z,74.22
2023-06-04T19:47:54.916Z,73.75
2023-06-04T19:50:21.679Z,73.55
2023-06-04T19:52:48.498Z,73.54
2023-06-04T19:55:15.083Z,74.04
2023-06-04T19:57:42.121Z,74.69
2023-06-04T20:00:09.561Z,74.73
2023-06-04T20:02:36.938Z,75.30
2023-06-04T20:05:04.148Z,75.80
2023-06-04T20:07:31.898Z,76.06
2023-06-04T20:09:58.703Z,75.93
2023-06-04T20:12:25.395Z,75.80
2023-06-04T20:14:52.167Z,75.31
2023-06-04T20:17:18.929Z,75.54
2023-06-04T20:19:45.898Z,75.46
2023-06-04T20:22:12.593Z,75.37
2023-06-04T20:24:40.150Z,75.51
2023-06-04T20:27:07.004Z,75.90
2023-06-04T20:29:33.855Z,76.27
2023-06-04T20:32:00.588Z,76.60
2023-06-04T20:34:27.857Z,76.94
2023-06-04T20:36:57.378Z,76.94
2023-06-04T20:39:24.266Z,76.71
2023-06-04T20:41:51.024Z,76.88
2023-06-04T20:44:18.660Z,77.21
2023-06-04T20:46:45.542Z,77.33
2023-06-04T20:49:12.929Z,77.25
2023-06-04T20:51:39.552Z,77.29
2023-06-04T20:54:06.183Z,77.38
2023-06-04T20:56:32.979Z,77.70
2023-06-04T20:58:59.665Z,78.58
2023-06-04T21:01:26.847Z,78.21
2023-06-04T21:03:53.756Z,77.93
2023-06-04T21:06:20.969Z,78.04
2023-06-04T21:08:47.647Z,77.89
2023-06-04T21:11:14.375Z,77.66
2023-06-04T21:13:41.007Z,77.49
2023-06-04T21:16:07.764Z,77.97
2023-06-04T21:18:34.433Z,78.49
2023-06-04T21:21:01.254Z,80.09
2023-06-04T21:23:27.868Z,79.83
2023-06-04T21:25:54.566Z,80.20
2023-06-04T21:28:21.248Z,79.50
2023-06-04T21:30:47.945Z,79.73
2023-06-04T21:33:14.567Z,79.22
2023-06-04T21:35:41.293Z,79.10
2023-06-04T21:38:07.880Z,78.90
2023-06-04T21:40:34.514Z,78.84
2023-06-04T21:43:01.247Z,79.98
2023-06-04T21:45:28.321Z,80.49
2023-06-04T21:47:55.543Z,80.77
2023-06-04T21:50:23.420Z,80.86
2023-06-04T21:52:50.099Z,80.00
2023-06-04T21:55:16.879Z,79.92
2023-06-04T21:57:43.616Z,80.57
2023-06-04T22:00:12.728Z,80.94
2023-06-04T22:02:40.036Z,81.05
2023-06-04T22:05:07.100Z,81.12
2023-06-04T22:07:33.935Z,80.77
2023-06-04T22:10:00.838Z,81.23
2023-06-04T22:12:28.575Z,81.08
2023-06-04T22:14:55.369Z,81.09
2023-06-04T22:17:22.057Z,81.48
2023-06-04T22:19:48.759Z,82.41
2023-06-04T22:22:15.494Z,83.35
2023-06-04T22:24:42.279Z,83.40
2023-06-04T22:27:08.977Z,83.78
2023-06-04T22:29:35.883Z,83.99
2023-06-04T22:32:02.559Z,84.26
2023-06-04T22:34:29.181Z,84.26
2023-06-04T22:36:55.906Z,84.14
2023-06-04T22:39:22.522Z,85.04
2023-06-04T22:41:49.178Z,85.57
2023-06-04T22:44:16.018Z,85.47
2023-06-04T22:46:42.793Z,85.25
2023-06-04T22:49:09.437Z,85.27
2023-06-04T22:51:36.325Z,85.26
2023-06-04T22:54:03.028Z,85.32
2023-06-04T22:56:29.759Z,85.54
2023-06-04T22:58:56.463Z,85.21
2023-06-04T23:01:23.228Z,84.62
2023-06-04T23:03:49.995Z,84.04
2023-06-04T23:06:16.881Z,84.16
2023-06-04T23:08:43.600Z,84.01
2023-06-04T23:11:10.543Z,84.07
2023-06-04T23:13:37.282Z,84.11
2023-06-04T23:16:03.986Z,84.59
2023-06-04T23:18:30.987Z,84.13
2023-06-04T23:20:57.716Z,84.41
2023-06-04T23:23:24.481Z,84.62
2023-06-04T23:25:51.354Z,84.91
2023-06-04T23:28:18.092Z,84.85
2023-06-04T23:30:44.836Z,85.09
2023-06-04T23:33:11.501Z,85.48
2023-06-04T23:35:38.225Z,86.10
2023-06-04T23:38:04.915Z,86.21
2023-06-04T23:40:31.634Z,85.94
2023-06-04T23:42:58.279Z,86.27
2023-06-04T23:45:24.984Z,85.95
2023-06-04T23:47:51.688Z,86.05
2023-06-04T23:50:18.416Z,86.22
2023-06-04T23:52:45.099Z,86.30
2023-06-04T23:55:11.740Z,86.41
2023-06-04T23:57:38.394Z,86.06
